sensor_id;sensor_type;location;lat;lon;timestamp;temperature;humidity
10802;DHT22;5453;50.852;7.102;2024-01-27T00:01:55;5.10;99.90
10802;DHT22;5453;50.852;7.102;2024-01-27T00:04:27;5.00;99.90
10802;DHT22;5453;50.852;7.102;2024-01-27T00:07:00;4.90;99.90
10802;DHT22;5453;50.852;7.102;2024-01-27T00:09:33;5.00;99.90
10802;DHT22;5453;50.852;7.102;2024-01-27T00:12:05;5.00;99.90
10802;DHT22;5453;50.852;7.102;2024-01-27T00:14:39;5.00;99.90
10802;DHT22;5453;50.852;7.102;2024-01-27T00:17:11;4.90;99.90
10802;DHT22;5453;50.852;7.102;2024-01-27T00:19:43;4.90;99.90
10802;DHT22;5453;50.852;7.102;2024-01-27T00:22:16;4.90;99.90
10802;DHT22;5453;50.852;7.102;2024-01-27T00:24:48;4.90;99.90
10802;DHT22;5453;50.852;7.102;2024-01-27T00:27:20;4.80;99.90
10802;DHT22;5453;50.852;7.102;2024-01-27T00:29:53;4.80;99.90
10802;DHT22;5453;50.852;7.102;2024-01-27T00:32:25;4.80;99.90
10802;DHT22;5453;50.852;7.102;2024-01-27T00:34:57;4.80;99.90
10802;DHT22;5453;50.852;7.102;2024-01-27T00:37:30;5.00;99.90
10802;DHT22;5453;50.852;7.102;2024-01-27T00:40:03;4.70;99.90
10802;DHT22;5453;50.852;7.102;2024-01-27T00:42:36;4.70;99.90
10802;DHT22;5453;50.852;7.102;2024-01-27T00:45:08;4.70;99.90
10802;DHT22;5453;50.852;7.102;2024-01-27T00:47:40;4.60;99.90
10802;DHT22;5453;50.852;7.102;2024-01-27T00:50:12;4.60;99.90
10802;DHT22;5453;50.852;7.102;2024-01-27T00:52:46;4.60;99.90
10802;DHT22;5453;50.852;7.102;2024-01-27T00:55:18;4.70;99.90
10802;DHT22;5453;50.852;7.102;2024-01-27T00:57:50;4.50;99.90
10802;DHT22;5453;50.852;7.102;2024-01-27T01:00:24;4.60;99.90
10802;DHT22;5453;50.852;7.102;2024-01-27T01:02:56;4.30;99.90
10802;DHT22;5453;50.852;7.102;2024-01-27T01:05:28;4.20;99.90
10802;DHT22;5453;50.852;7.102;2024-01-27T01:08:02;4.10;99.90
10802;DHT22;5453;50.852;7.102;2024-01-27T01:10:34;4.10;99.90
10802;DHT22;5453;50.852;7.102;2024-01-27T01:13:06;4.10;99.90
10802;DHT22;5453;50.852;7.102;2024-01-27T01:15:38;4.00;99.90
10802;DHT22;5453;50.852;7.102;2024-01-27T01:18:11;4.00;99.90
10802;DHT22;5453;50.852;7.102;2024-01-27T01:20:43;3.90;99.90
10802;DHT22;5453;50.852;7.102;2024-01-27T01:23:16;3.90;99.90
10802;DHT22;5453;50.852;7.102;2024-01-27T01:25:48;3.80;99.90
10802;DHT22;5453;50.852;7.102;2024-01-27T01:28:20;3.60;99.90
10802;DHT22;5453;50.852;7.102;2024-01-27T01:30:53;4.10;99.90
10802;DHT22;5453;50.852;7.102;2024-01-27T01:33:25;3.80;99.90
10802;DHT22;5453;50.852;7.102;2024-01-27T01:35:57;3.70;99.90
10802;DHT22;5453;50.852;7.102;2024-01-27T01:38:30;3.60;99.90
10802;DHT22;5453;50.852;7.102;2024-01-27T01:41:03;3.70;99.90
10802;DHT22;5453;50.852;7.102;2024-01-27T01:43:35;3.70;99.90
10802;DHT22;5453;50.852;7.102;2024-01-27T01:46:07;3.70;99.90
10802;DHT22;5453;50.852;7.102;2024-01-27T01:48:39;3.60;99.90
10802;DHT22;5453;50.852;7.102;2024-01-27T01:51:12;3.60;99.90
10802;DHT22;5453;50.852;7.102;2024-01-27T01:53:48;3.50;99.90
10802;DHT22;5453;50.852;7.102;2024-01-27T01:56:20;3.30;99.90
10802;DHT22;5453;50.852;7.102;2024-01-27T01:58:54;3.40;99.90
10802;DHT22;5453;50.852;7.102;2024-01-27T02:01:26;3.30;99.90
10802;DHT22;5453;50.852;7.102;2024-01-27T02:03:58;3.30;99.90
10802;DHT22;5453;50.852;7.102;2024-01-27T02:06:30;3.80;99.90
10802;DHT22;5453;50.852;7.102;2024-01-27T02:09:05;3.20;99.90
10802;DHT22;5453;50.852;7.102;2024-01-27T02:11:37;3.00;99.90
10802;DHT22;5453;50.852;7.102;2024-01-27T02:14:09;3.20;99.90
10802;DHT22;5453;50.852;7.102;2024-01-27T02:16:41;3.10;99.90
10802;DHT22;5453;50.852;7.102;2024-01-27T02:19:13;3.10;99.90
10802;DHT22;5453;50.852;7.102;2024-01-27T02:21:45;3.10;99.90
10802;DHT22;5453;50.852;7.102;2024-01-27T02:24:19;3.00;99.90
10802;DHT22;5453;50.852;7.102;2024-01-27T02:26:51;2.90;99.90
10802;DHT22;5453;50.852;7.102;2024-01-27T02:29:23;3.60;99.90
10802;DHT22;5453;50.852;7.102;2024-01-27T02:31:58;3.00;99.90
10802;DHT22;5453;50.852;7.102;2024-01-27T02:34:30;3.00;99.90
10802;DHT22;5453;50.852;7.102;2024-01-27T02:37:02;2.90;99.90
10802;DHT22;5453;50.852;7.102;2024-01-27T02:39:37;2.90;99.90
10802;DHT22;5453;50.852;7.102;2024-01-27T02:42:10;3.10;99.90
10802;DHT22;5453;50.852;7.102;2024-01-27T02:44:42;2.90;99.90
10802;DHT22;5453;50.852;7.102;2024-01-27T02:47:15;2.80;99.90
10802;DHT22;5453;50.852;7.102;2024-01-27T02:49:47;3.00;99.90
10802;DHT22;5453;50.852;7.102;2024-01-27T02:52:19;2.90;99.90
10802;DHT22;5453;50.852;7.102;2024-01-27T02:54:52;2.90;99.90
10802;DHT22;5453;50.852;7.102;2024-01-27T02:57:24;2.80;99.90
10802;DHT22;5453;50.852;7.102;2024-01-27T02:59:56;2.80;99.90
10802;DHT22;5453;50.852;7.102;2024-01-27T03:02:28;2.80;99.90
10802;DHT22;5453;50.852;7.102;2024-01-27T03:05:01;2.80;99.90
10802;DHT22;5453;50.852;7.102;2024-01-27T03:07:33;2.80;99.90
10802;DHT22;5453;50.852;7.102;2024-01-27T03:10:07;2.60;99.90
10802;DHT22;5453;50.852;7.102;2024-01-27T03:12:41;2.60;99.90
10802;DHT22;5453;50.852;7.102;2024-01-27T03:15:13;2.60;99.90
10802;DHT22;5453;50.852;7.102;2024-01-27T03:17:45;2.60;99.90
10802;DHT22;5453;50.852;7.102;2024-01-27T03:20:17;2.50;99.90
10802;DHT22;5453;50.852;7.102;2024-01-27T03:22:49;2.50;99.90
10802;DHT22;5453;50.852;7.102;2024-01-27T03:25:23;2.50;99.90
10802;DHT22;5453;50.852;7.102;2024-01-27T03:27:56;2.40;99.90
10802;DHT22;5453;50.852;7.102;2024-01-27T03:30:28;2.40;99.90
10802;DHT22;5453;50.852;7.102;2024-01-27T03:33:00;2.30;99.90
10802;DHT22;5453;50.852;7.102;2024-01-27T03:35:32;2.40;99.90
10802;DHT22;5453;50.852;7.102;2024-01-27T03:38:05;2.30;99.90
10802;DHT22;5453;50.852;7.102;2024-01-27T03:40:39;2.30;99.90
10802;DHT22;5453;50.852;7.102;2024-01-27T03:43:11;2.30;99.90
10802;DHT22;5453;50.852;7.102;2024-01-27T03:45:43;2.30;99.90
10802;DHT22;5453;50.852;7.102;2024-01-27T03:48:15;2.30;99.90
10802;DHT22;5453;50.852;7.102;2024-01-27T03:50:47;2.20;99.90
10802;DHT22;5453;50.852;7.102;2024-01-27T03:53:20;2.20;99.90
10802;DHT22;5453;50.852;7.102;2024-01-27T03:55:53;2.20;99.90
10802;DHT22;5453;50.852;7.102;2024-01-27T03:58:25;2.10;99.90
10802;DHT22;5453;50.852;7.102;2024-01-27T04:00:57;2.20;99.90
10802;DHT22;5453;50.852;7.102;2024-01-27T04:03:30;2.10;99.90
10802;DHT22;5453;50.852;7.102;2024-01-27T04:06:02;2.10;99.90
10802;DHT22;5453;50.852;7.102;2024-01-27T04:08:34;2.10;99.90
10802;DHT22;5453;50.852;7.102;2024-01-27T04:11:08;2.10;99.90
10802;DHT22;5453;50.852;7.102;2024-01-27T04:13:40;2.10;99.90
10802;DHT22;5453;50.852;7.102;2024-01-27T04:16:12;2.10;99.90
10802;DHT22;5453;50.852;7.102;2024-01-27T04:18:44;2.10;99.90
10802;DHT22;5453;50.852;7.102;2024-01-27T04:21:16;2.20;99.90
10802;DHT22;5453;50.852;7.102;2024-01-27T04:23:48;2.20;99.90
10802;DHT22;5453;50.852;7.102;2024-01-27T04:26:22;2.10;99.90
10802;DHT22;5453;50.852;7.102;2024-01-27T04:28:54;2.10;99.90
10802;DHT22;5453;50.852;7.102;2024-01-27T04:31:26;2.10;99.90
10802;DHT22;5453;50.852;7.102;2024-01-27T04:33:58;2.10;99.90
10802;DHT22;5453;50.852;7.102;2024-01-27T04:36:30;2.00;99.90
10802;DHT22;5453;50.852;7.102;2024-01-27T04:39:03;2.00;99.90
10802;DHT22;5453;50.852;7.102;2024-01-27T04:41:42;2.00;99.90
10802;DHT22;5453;50.852;7.102;2024-01-27T04:44:14;1.90;99.90
10802;DHT22;5453;50.852;7.102;2024-01-27T04:46:46;1.90;99.90
10802;DHT22;5453;50.852;7.102;2024-01-27T04:49:19;1.90;99.90
10802;DHT22;5453;50.852;7.102;2024-01-27T04:51:51;1.90;99.90
10802;DHT22;5453;50.852;7.102;2024-01-27T04:54:23;1.90;99.90
10802;DHT22;5453;50.852;7.102;2024-01-27T04:56:57;1.80;99.90
10802;DHT22;5453;50.852;7.102;2024-01-27T04:59:29;1.80;99.90
10802;DHT22;5453;50.852;7.102;2024-01-27T05:02:01;1.80;99.90
10802;DHT22;5453;50.852;7.102;2024-01-27T05:04:33;1.80;99.90
10802;DHT22;5453;50.852;7.102;2024-01-27T05:07:05;1.80;99.90
10802;DHT22;5453;50.852;7.102;2024-01-27T05:09:37;1.80;99.90
10802;DHT22;5453;50.852;7.102;2024-01-27T05:12:10;1.80;99.90
10802;DHT22;5453;50.852;7.102;2024-01-27T05:14:43;1.80;99.90
10802;DHT22;5453;50.852;7.102;2024-01-27T05:17:16;1.70;99.90
10802;DHT22;5453;50.852;7.102;2024-01-27T05:19:49;1.70;99.90
10802;DHT22;5453;50.852;7.102;2024-01-27T05:22:21;1.70;99.90
10802;DHT22;5453;50.852;7.102;2024-01-27T05:24:53;1.70;99.90
10802;DHT22;5453;50.852;7.102;2024-01-27T05:27:27;1.70;99.90
10802;DHT22;5453;50.852;7.102;2024-01-27T05:29:59;1.60;99.90
10802;DHT22;5453;50.852;7.102;2024-01-27T05:32:31;1.60;99.90
10802;DHT22;5453;50.852;7.102;2024-01-27T05:35:04;1.60;99.90
10802;DHT22;5453;50.852;7.102;2024-01-27T05:37:37;1.60;99.90
10802;DHT22;5453;50.852;7.102;2024-01-27T05:40:10;1.60;99.90
10802;DHT22;5453;50.852;7.102;2024-01-27T05:42:44;1.60;99.90
10802;DHT22;5453;50.852;7.102;2024-01-27T05:45:17;1.60;99.90
10802;DHT22;5453;50.852;7.102;2024-01-27T05:47:49;1.60;99.90
10802;DHT22;5453;50.852;7.102;2024-01-27T05:50:21;1.60;99.90
10802;DHT22;5453;50.852;7.102;2024-01-27T05:52:53;1.60;99.90
10802;DHT22;5453;50.852;7.102;2024-01-27T05:55:25;1.60;99.90
10802;DHT22;5453;50.852;7.102;2024-01-27T05:57:59;1.60;99.90
10802;DHT22;5453;50.852;7.102;2024-01-27T06:00:31;1.50;99.90
10802;DHT22;5453;50.852;7.102;2024-01-27T06:03:03;2.00;99.90
10802;DHT22;5453;50.852;7.102;2024-01-27T06:05:35;1.50;99.90
10802;DHT22;5453;50.852;7.102;2024-01-27T06:08:08;1.90;99.90
10802;DHT22;5453;50.852;7.102;2024-01-27T06:10:40;1.60;99.90
10802;DHT22;5453;50.852;7.102;2024-01-27T06:13:14;2.90;99.90
10802;DHT22;5453;50.852;7.102;2024-01-27T06:15:46;1.50;99.90
10802;DHT22;5453;50.852;7.102;2024-01-27T06:18:18;1.60;99.90
10802;DHT22;5453;50.852;7.102;2024-01-27T06:20:50;1.60;99.90
10802;DHT22;5453;50.852;7.102;2024-01-27T06:23:23;1.60;99.90
10802;DHT22;5453;50.852;7.102;2024-01-27T06:25:55;1.60;99.90
10802;DHT22;5453;50.852;7.102;2024-01-27T06:28:28;1.40;99.90
10802;DHT22;5453;50.852;7.102;2024-01-27T06:31:00;1.50;99.90
10802;DHT22;5453;50.852;7.102;2024-01-27T06:33:34;1.50;99.90
10802;DHT22;5453;50.852;7.102;2024-01-27T06:36:06;1.50;99.90
10802;DHT22;5453;50.852;7.102;2024-01-27T06:38:40;1.60;99.90
10802;DHT22;5453;50.852;7.102;2024-01-27T06:41:12;1.60;99.90
10802;DHT22;5453;50.852;7.102;2024-01-27T06:43:45;1.60;99.90
10802;DHT22;5453;50.852;7.102;2024-01-27T06:46:17;1.60;99.90
10802;DHT22;5453;50.852;7.102;2024-01-27T06:48:49;1.70;99.90
10802;DHT22;5453;50.852;7.102;2024-01-27T06:51:22;1.60;99.90
10802;DHT22;5453;50.852;7.102;2024-01-27T06:53:54;1.70;99.90
10802;DHT22;5453;50.852;7.102;2024-01-27T06:56:26;1.70;99.90
10802;DHT22;5453;50.852;7.102;2024-01-27T06:58:59;1.70;99.90
10802;DHT22;5453;50.852;7.102;2024-01-27T07:01:31;1.70;99.90
10802;DHT22;5453;50.852;7.102;2024-01-27T07:04:04;1.70;99.90
10802;DHT22;5453;50.852;7.102;2024-01-27T07:06:36;1.70;99.90
10802;DHT22;5453;50.852;7.102;2024-01-27T07:09:08;1.80;99.90
10802;DHT22;5453;50.852;7.102;2024-01-27T07:11:40;1.90;99.90
10802;DHT22;5453;50.852;7.102;2024-01-27T07:14:15;1.90;99.90
10802;DHT22;5453;50.852;7.102;2024-01-27T07:16:47;2.00;99.90
10802;DHT22;5453;50.852;7.102;2024-01-27T07:19:19;2.00;99.90
10802;DHT22;5453;50.852;7.102;2024-01-27T07:21:51;2.00;99.90
10802;DHT22;5453;50.852;7.102;2024-01-27T07:24:23;2.00;99.90
10802;DHT22;5453;50.852;7.102;2024-01-27T07:26:55;2.00;99.90
10802;DHT22;5453;50.852;7.102;2024-01-27T07:29:30;2.10;99.90
10802;DHT22;5453;50.852;7.102;2024-01-27T07:32:02;2.00;99.90
10802;DHT22;5453;50.852;7.102;2024-01-27T07:34:35;2.00;99.90
10802;DHT22;5453;50.852;7.102;2024-01-27T07:37:07;2.00;99.90
10802;DHT22;5453;50.852;7.102;2024-01-27T07:39:40;1.90;99.90
10802;DHT22;5453;50.852;7.102;2024-01-27T07:42:12;2.00;99.90
10802;DHT22;5453;50.852;7.102;2024-01-27T07:44:45;1.90;99.90
10802;DHT22;5453;50.852;7.102;2024-01-27T07:47:17;1.90;99.90
10802;DHT22;5453;50.852;7.102;2024-01-27T07:49:50;1.90;99.90
10802;DHT22;5453;50.852;7.102;2024-01-27T07:52:23;1.90;99.90
10802;DHT22;5453;50.852;7.102;2024-01-27T07:54:56;1.90;99.90
10802;DHT22;5453;50.852;7.102;2024-01-27T07:57:28;1.90;99.90
10802;DHT22;5453;50.852;7.102;2024-01-27T08:00:02;1.90;99.90
10802;DHT22;5453;50.852;7.102;2024-01-27T08:02:37;2.00;99.90
10802;DHT22;5453;50.852;7.102;2024-01-27T08:07:08;1.90;99.90
10802;DHT22;5453;50.852;7.102;2024-01-27T08:09:41;2.00;99.90
10802;DHT22;5453;50.852;7.102;2024-01-27T08:12:13;2.00;99.90
10802;DHT22;5453;50.852;7.102;2024-01-27T08:14:46;2.00;99.90
10802;DHT22;5453;50.852;7.102;2024-01-27T08:17:18;2.00;99.90
10802;DHT22;5453;50.852;7.102;2024-01-27T08:19:51;2.10;99.90
10802;DHT22;5453;50.852;7.102;2024-01-27T08:22:28;2.10;99.90
10802;DHT22;5453;50.852;7.102;2024-01-27T08:25:00;2.20;99.90
10802;DHT22;5453;50.852;7.102;2024-01-27T08:27:33;2.30;99.90
10802;DHT22;5453;50.852;7.102;2024-01-27T08:30:06;2.30;99.90
10802;DHT22;5453;50.852;7.102;2024-01-27T08:32:42;2.50;99.90
10802;DHT22;5453;50.852;7.102;2024-01-27T08:35:14;2.60;99.90
10802;DHT22;5453;50.852;7.102;2024-01-27T08:37:48;2.70;99.90
10802;DHT22;5453;50.852;7.102;2024-01-27T08:40:21;2.80;99.90
10802;DHT22;5453;50.852;7.102;2024-01-27T08:42:53;2.90;99.90
10802;DHT22;5453;50.852;7.102;2024-01-27T08:45:25;3.00;99.90
10802;DHT22;5453;50.852;7.102;2024-01-27T08:47:58;3.00;99.90
10802;DHT22;5453;50.852;7.102;2024-01-27T08:50:31;3.10;99.90
10802;DHT22;5453;50.852;7.102;2024-01-27T08:53:05;3.20;99.90
10802;DHT22;5453;50.852;7.102;2024-01-27T08:55:37;3.20;99.90
10802;DHT22;5453;50.852;7.102;2024-01-27T08:58:10;3.20;99.90
10802;DHT22;5453;50.852;7.102;2024-01-27T09:00:42;3.30;99.90
10802;DHT22;5453;50.852;7.102;2024-01-27T09:03:14;3.30;99.90
10802;DHT22;5453;50.852;7.102;2024-01-27T09:05:47;3.30;99.90
10802;DHT22;5453;50.852;7.102;2024-01-27T09:08:21;3.40;99.90
10802;DHT22;5453;50.852;7.102;2024-01-27T09:10:53;3.50;99.90
10802;DHT22;5453;50.852;7.102;2024-01-27T09:13:25;3.60;99.90
10802;DHT22;5453;50.852;7.102;2024-01-27T09:15:59;3.60;99.90
10802;DHT22;5453;50.852;7.102;2024-01-27T09:18:31;3.70;99.90
10802;DHT22;5453;50.852;7.102;2024-01-27T09:21:04;3.80;99.90
10802;DHT22;5453;50.852;7.102;2024-01-27T09:23:38;3.90;99.90
10802;DHT22;5453;50.852;7.102;2024-01-27T09:26:10;4.20;99.90
10802;DHT22;5453;50.852;7.102;2024-01-27T09:28:43;4.40;99.90
10802;DHT22;5453;50.852;7.102;2024-01-27T09:31:16;4.60;99.90
10802;DHT22;5453;50.852;7.102;2024-01-27T09:33:49;4.80;99.90
10802;DHT22;5453;50.852;7.102;2024-01-27T09:36:22;4.90;99.90
10802;DHT22;5453;50.852;7.102;2024-01-27T09:38:56;5.10;99.90
10802;DHT22;5453;50.852;7.102;2024-01-27T09:41:31;5.20;99.90
10802;DHT22;5453;50.852;7.102;2024-01-27T09:44:04;5.40;99.90
10802;DHT22;5453;50.852;7.102;2024-01-27T09:46:41;5.50;99.90
10802;DHT22;5453;50.852;7.102;2024-01-27T09:49:14;5.70;99.90
10802;DHT22;5453;50.852;7.102;2024-01-27T09:51:46;5.90;99.90
10802;DHT22;5453;50.852;7.102;2024-01-27T09:54:21;6.10;99.90
10802;DHT22;5453;50.852;7.102;2024-01-27T09:56:54;6.20;99.90
10802;DHT22;5453;50.852;7.102;2024-01-27T09:59:28;6.30;99.90
10802;DHT22;5453;50.852;7.102;2024-01-27T10:02:02;6.40;99.90
10802;DHT22;5453;50.852;7.102;2024-01-27T10:04:36;6.50;99.90
10802;DHT22;5453;50.852;7.102;2024-01-27T10:07:08;6.70;99.90
10802;DHT22;5453;50.852;7.102;2024-01-27T10:09:42;6.70;99.90
10802;DHT22;5453;50.852;7.102;2024-01-27T10:12:15;6.80;99.90
10802;DHT22;5453;50.852;7.102;2024-01-27T10:14:48;7.00;99.90
10802;DHT22;5453;50.852;7.102;2024-01-27T10:17:24;7.10;99.90
10802;DHT22;5453;50.852;7.102;2024-01-27T10:20:00;7.20;99.90
10802;DHT22;5453;50.852;7.102;2024-01-27T10:22:37;7.20;99.90
10802;DHT22;5453;50.852;7.102;2024-01-27T10:25:15;7.30;99.90
10802;DHT22;5453;50.852;7.102;2024-01-27T10:27:47;7.40;99.90
10802;DHT22;5453;50.852;7.102;2024-01-27T10:30:20;7.50;99.90
10802;DHT22;5453;50.852;7.102;2024-01-27T10:32:55;7.60;99.90
10802;DHT22;5453;50.852;7.102;2024-01-27T10:35:28;7.60;99.90
10802;DHT22;5453;50.852;7.102;2024-01-27T10:38:01;7.70;99.90
10802;DHT22;5453;50.852;7.102;2024-01-27T10:40:36;7.80;99.90
10802;DHT22;5453;50.852;7.102;2024-01-27T10:43:08;7.90;99.90
10802;DHT22;5453;50.852;7.102;2024-01-27T10:45:41;8.10;99.90
10802;DHT22;5453;50.852;7.102;2024-01-27T10:48:13;8.20;99.90
10802;DHT22;5453;50.852;7.102;2024-01-27T10:50:47;8.30;99.90
10802;DHT22;5453;50.852;7.102;2024-01-27T10:53:22;8.40;99.90
10802;DHT22;5453;50.852;7.102;2024-01-27T10:55:59;8.50;99.90
10802;DHT22;5453;50.852;7.102;2024-01-27T10:58:33;8.40;99.90
10802;DHT22;5453;50.852;7.102;2024-01-27T11:01:11;8.40;99.90
10802;DHT22;5453;50.852;7.102;2024-01-27T11:03:47;8.50;99.90
10802;DHT22;5453;50.852;7.102;2024-01-27T11:06:22;8.60;99.90
10802;DHT22;5453;50.852;7.102;2024-01-27T11:08:54;8.70;99.90
10802;DHT22;5453;50.852;7.102;2024-01-27T11:11:29;8.80;99.90
10802;DHT22;5453;50.852;7.102;2024-01-27T11:14:02;8.80;99.90
10802;DHT22;5453;50.852;7.102;2024-01-27T11:16:34;8.90;99.90
10802;DHT22;5453;50.852;7.102;2024-01-27T11:19:10;9.30;99.90
10802;DHT22;5453;50.852;7.102;2024-01-27T11:21:42;9.50;99.90
10802;DHT22;5453;50.852;7.102;2024-01-27T11:24:16;9.50;99.90
10802;DHT22;5453;50.852;7.102;2024-01-27T11:27:00;9.40;99.90
10802;DHT22;5453;50.852;7.102;2024-01-27T11:29:33;9.30;99.90
10802;DHT22;5453;50.852;7.102;2024-01-27T11:32:07;9.30;99.90
10802;DHT22;5453;50.852;7.102;2024-01-27T11:34:42;9.30;99.90
10802;DHT22;5453;50.852;7.102;2024-01-27T11:37:16;9.40;99.90
10802;DHT22;5453;50.852;7.102;2024-01-27T11:39:50;9.40;99.90
10802;DHT22;5453;50.852;7.102;2024-01-27T11:42:24;9.50;99.90
10802;DHT22;5453;50.852;7.102;2024-01-27T11:44:57;9.50;99.90
10802;DHT22;5453;50.852;7.102;2024-01-27T11:47:29;9.60;99.90
10802;DHT22;5453;50.852;7.102;2024-01-27T11:50:02;9.60;99.90
10802;DHT22;5453;50.852;7.102;2024-01-27T11:52:35;9.70;99.90
10802;DHT22;5453;50.852;7.102;2024-01-27T11:55:07;9.80;99.90
10802;DHT22;5453;50.852;7.102;2024-01-27T11:57:41;10.00;99.90
10802;DHT22;5453;50.852;7.102;2024-01-27T12:00:14;10.00;99.80
10802;DHT22;5453;50.852;7.102;2024-01-27T12:02:50;9.90;99.40
10802;DHT22;5453;50.852;7.102;2024-01-27T12:05:23;10.00;99.80
10802;DHT22;5453;50.852;7.102;2024-01-27T12:07:55;9.90;99.20
10802;DHT22;5453;50.852;7.102;2024-01-27T12:10:28;10.00;99.40
10802;DHT22;5453;50.852;7.102;2024-01-27T12:13:02;10.00;99.60
10802;DHT22;5453;50.852;7.102;2024-01-27T12:15:34;10.00;99.70
10802;DHT22;5453;50.852;7.102;2024-01-27T12:18:06;10.20;99.90
10802;DHT22;5453;50.852;7.102;2024-01-27T12:20:39;10.40;99.80
10802;DHT22;5453;50.852;7.102;2024-01-27T12:23:11;10.40;99.30
10802;DHT22;5453;50.852;7.102;2024-01-27T12:25:52;10.50;99.10
10802;DHT22;5453;50.852;7.102;2024-01-27T12:28:27;10.50;98.90
10802;DHT22;5453;50.852;7.102;2024-01-27T12:31:00;10.50;98.70
10802;DHT22;5453;50.852;7.102;2024-01-27T12:33:32;10.50;98.30
10802;DHT22;5453;50.852;7.102;2024-01-27T12:36:07;10.40;98.40
10802;DHT22;5453;50.852;7.102;2024-01-27T12:38:41;10.40;98.30
10802;DHT22;5453;50.852;7.102;2024-01-27T12:41:13;10.40;98.20
10802;DHT22;5453;50.852;7.102;2024-01-27T12:43:47;10.40;98.40
10802;DHT22;5453;50.852;7.102;2024-01-27T12:46:20;10.40;98.10
10802;DHT22;5453;50.852;7.102;2024-01-27T12:48:53;10.50;98.30
10802;DHT22;5453;50.852;7.102;2024-01-27T12:51:25;10.50;97.60
10802;DHT22;5453;50.852;7.102;2024-01-27T12:53:57;10.40;96.70
10802;DHT22;5453;50.852;7.102;2024-01-27T12:56:30;10.40;97.20
10802;DHT22;5453;50.852;7.102;2024-01-27T12:59:04;10.30;97.20
10802;DHT22;5453;50.852;7.102;2024-01-27T13:01:38;10.30;96.70
10802;DHT22;5453;50.852;7.102;2024-01-27T13:04:10;10.30;97.10
10802;DHT22;5453;50.852;7.102;2024-01-27T13:06:43;10.30;97.00
10802;DHT22;5453;50.852;7.102;2024-01-27T13:09:15;10.30;96.50
10802;DHT22;5453;50.852;7.102;2024-01-27T13:11:47;10.30;96.70
10802;DHT22;5453;50.852;7.102;2024-01-27T13:14:22;10.30;97.00
10802;DHT22;5453;50.852;7.102;2024-01-27T13:16:54;10.40;96.90
10802;DHT22;5453;50.852;7.102;2024-01-27T13:19:29;10.40;96.60
10802;DHT22;5453;50.852;7.102;2024-01-27T13:22:02;10.40;95.80
10802;DHT22;5453;50.852;7.102;2024-01-27T13:24:36;10.30;95.80
10802;DHT22;5453;50.852;7.102;2024-01-27T13:27:09;10.40;96.40
10802;DHT22;5453;50.852;7.102;2024-01-27T13:29:43;10.40;96.20
10802;DHT22;5453;50.852;7.102;2024-01-27T13:32:17;10.50;95.60
10802;DHT22;5453;50.852;7.102;2024-01-27T13:34:49;10.40;95.10
10802;DHT22;5453;50.852;7.102;2024-01-27T13:37:21;10.40;94.80
10802;DHT22;5453;50.852;7.102;2024-01-27T13:39:54;10.40;94.60
10802;DHT22;5453;50.852;7.102;2024-01-27T13:42:27;10.40;94.50
10802;DHT22;5453;50.852;7.102;2024-01-27T13:45:01;10.40;94.30
10802;DHT22;5453;50.852;7.102;2024-01-27T13:47:34;10.30;94.20
10802;DHT22;5453;50.852;7.102;2024-01-27T13:50:07;10.30;93.90
10802;DHT22;5453;50.852;7.102;2024-01-27T13:52:40;10.20;93.80
10802;DHT22;5453;50.852;7.102;2024-01-27T13:55:14;10.20;94.00
10802;DHT22;5453;50.852;7.102;2024-01-27T13:57:46;10.20;93.90
10802;DHT22;5453;50.852;7.102;2024-01-27T14:00:20;10.20;93.90
10802;DHT22;5453;50.852;7.102;2024-01-27T14:02:53;10.10;93.60
10802;DHT22;5453;50.852;7.102;2024-01-27T14:05:25;10.10;92.90
10802;DHT22;5453;50.852;7.102;2024-01-27T14:07:58;10.00;92.80
10802;DHT22;5453;50.852;7.102;2024-01-27T14:10:30;10.00;92.70
10802;DHT22;5453;50.852;7.102;2024-01-27T14:13:03;10.00;92.80
10802;DHT22;5453;50.852;7.102;2024-01-27T14:15:41;10.00;92.90
10802;DHT22;5453;50.852;7.102;2024-01-27T14:18:13;10.00;92.90
10802;DHT22;5453;50.852;7.102;2024-01-27T14:20:51;10.00;92.80
10802;DHT22;5453;50.852;7.102;2024-01-27T14:23:26;10.00;93.20
10802;DHT22;5453;50.852;7.102;2024-01-27T14:25:59;10.00;93.00
10802;DHT22;5453;50.852;7.102;2024-01-27T14:28:31;10.00;93.00
10802;DHT22;5453;50.852;7.102;2024-01-27T14:31:05;10.00;92.70
10802;DHT22;5453;50.852;7.102;2024-01-27T14:33:41;10.00;92.90
10802;DHT22;5453;50.852;7.102;2024-01-27T14:36:14;9.90;93.00
10802;DHT22;5453;50.852;7.102;2024-01-27T14:38:46;9.90;92.80
10802;DHT22;5453;50.852;7.102;2024-01-27T14:41:22;9.90;92.80
10802;DHT22;5453;50.852;7.102;2024-01-27T14:43:54;9.90;93.00
10802;DHT22;5453;50.852;7.102;2024-01-27T14:46:28;9.80;92.80
10802;DHT22;5453;50.852;7.102;2024-01-27T14:49:01;9.80;92.80
10802;DHT22;5453;50.852;7.102;2024-01-27T14:51:36;9.80;93.10
10802;DHT22;5453;50.852;7.102;2024-01-27T14:54:08;9.80;92.70
10802;DHT22;5453;50.852;7.102;2024-01-27T14:56:41;9.80;92.70
10802;DHT22;5453;50.852;7.102;2024-01-27T14:59:13;9.70;92.80
10802;DHT22;5453;50.852;7.102;2024-01-27T15:01:48;9.70;92.60
10802;DHT22;5453;50.852;7.102;2024-01-27T15:04:22;9.70;92.40
10802;DHT22;5453;50.852;7.102;2024-01-27T15:06:56;9.70;91.80
10802;DHT22;5453;50.852;7.102;2024-01-27T15:09:29;9.60;91.70
10802;DHT22;5453;50.852;7.102;2024-01-27T15:12:01;9.60;91.20
10802;DHT22;5453;50.852;7.102;2024-01-27T15:14:34;9.50;91.40
10802;DHT22;5453;50.852;7.102;2024-01-27T15:17:08;9.40;91.50
10802;DHT22;5453;50.852;7.102;2024-01-27T15:19:41;9.40;91.70
10802;DHT22;5453;50.852;7.102;2024-01-27T15:22:13;9.40;91.80
10802;DHT22;5453;50.852;7.102;2024-01-27T15:24:45;9.30;91.70
10802;DHT22;5453;50.852;7.102;2024-01-27T15:27:18;9.30;91.90
10802;DHT22;5453;50.852;7.102;2024-01-27T15:29:50;9.20;91.90
10802;DHT22;5453;50.852;7.102;2024-01-27T15:32:24;9.20;92.00
10802;DHT22;5453;50.852;7.102;2024-01-27T15:34:58;9.10;92.20
10802;DHT22;5453;50.852;7.102;2024-01-27T15:37:30;9.10;92.40
10802;DHT22;5453;50.852;7.102;2024-01-27T15:40:03;9.00;92.60
10802;DHT22;5453;50.852;7.102;2024-01-27T15:42:36;9.00;93.00
10802;DHT22;5453;50.852;7.102;2024-01-27T15:45:09;9.00;93.50
10802;DHT22;5453;50.852;7.102;2024-01-27T15:47:42;8.90;93.90
10802;DHT22;5453;50.852;7.102;2024-01-27T15:50:15;8.80;95.20
10802;DHT22;5453;50.852;7.102;2024-01-27T15:52:49;8.70;95.00
10802;DHT22;5453;50.852;7.102;2024-01-27T15:55:21;8.70;95.20
10802;DHT22;5453;50.852;7.102;2024-01-27T15:57:54;8.60;95.30
10802;DHT22;5453;50.852;7.102;2024-01-27T16:00:26;8.50;95.60
10802;DHT22;5453;50.852;7.102;2024-01-27T16:03:00;8.40;96.10
10802;DHT22;5453;50.852;7.102;2024-01-27T16:05:32;8.30;96.50
10802;DHT22;5453;50.852;7.102;2024-01-27T16:08:05;8.20;96.70
10802;DHT22;5453;50.852;7.102;2024-01-27T16:10:41;8.10;96.90
10802;DHT22;5453;50.852;7.102;2024-01-27T16:17:26;8.00;99.90
10802;DHT22;5453;50.852;7.102;2024-01-27T16:20:00;7.90;99.70
10802;DHT22;5453;50.852;7.102;2024-01-27T16:22:32;7.80;99.50
10802;DHT22;5453;50.852;7.102;2024-01-27T16:25:05;7.70;99.40
10802;DHT22;5453;50.852;7.102;2024-01-27T16:27:38;7.60;99.50
10802;DHT22;5453;50.852;7.102;2024-01-27T16:30:11;7.50;99.30
10802;DHT22;5453;50.852;7.102;2024-01-27T16:32:44;7.40;99.50
10802;DHT22;5453;50.852;7.102;2024-01-27T16:35:17;7.40;99.60
10802;DHT22;5453;50.852;7.102;2024-01-27T16:37:50;7.30;99.80
10802;DHT22;5453;50.852;7.102;2024-01-27T16:40:23;7.20;99.90
10802;DHT22;5453;50.852;7.102;2024-01-27T16:42:55;7.10;99.90